Uruana, Brazil
Current Conditions -  °F | °C
As of 11:00 PM on Wednesday 22 Oct 2014 (Local Time) from SBAN Reporting Station
Thunderstorm Thunderstorm  
Wind Chill: 68°   Ceiling: 10000
Heat Index: NA   Visibility: 4mi
Dew Point: NA   Wind: 17mph
Humidity: NA   Direction: 120°ESE
Pressure: 30.18"   Gusts: NA
Location:  15.5°S, 49.69°W
Report Text: SBAN 230100Z 12015KT 6000 2000W TSRA SCT025 FEW030CB BKN100 20/17 Q1022
Loading
Personal Weather Stations






























Interactive Weather Map
Tropical Storm Tracking
New forecast layout! Learn more

10-Day Weather Forecast

Advertisements
Track Severe Weather on mobile